createdAt,value
2022-10-15T00:05:14.673Z,20.00
2022-10-15T00:15:18.637Z,19.60
2022-10-15T00:25:22.209Z,20.00
2022-10-15T00:35:25.891Z,18.70
2022-10-15T00:45:29.539Z,18.40
2022-10-15T00:55:36.784Z,17.70
2022-10-15T01:05:41.271Z,15.60
2022-10-15T01:15:57.950Z,16.20
2022-10-15T01:26:25.435Z,15.40
2022-10-15T01:36:31.968Z,13.40
2022-10-15T01:46:59.388Z,12.10
2022-10-15T01:57:04.756Z,12.60
2022-10-15T02:07:48.459Z,12.80
2022-10-15T02:18:36.686Z,12.40
2022-10-15T02:28:45.702Z,10.60
2022-10-15T02:38:52.469Z,10.40
2022-10-15T02:48:56.024Z,10.40
2022-10-15T02:58:59.796Z,10.90
2022-10-15T03:09:04.590Z,10.40
2022-10-15T03:19:08.765Z,10.90
2022-10-15T03:29:12.839Z,9.80
2022-10-15T03:39:28.494Z,9.80
2022-10-15T03:49:34.913Z,10.90
2022-10-15T03:59:39.662Z,11.40
2022-10-15T04:09:43.669Z,12.10
2022-10-15T04:19:58.687Z,11.50
2022-10-15T04:30:02.776Z,12.10
2022-10-15T04:40:08.690Z,12.80
2022-10-15T04:50:12.668Z,11.10
2022-10-15T05:00:35.254Z,13.10
2022-10-15T05:11:14.330Z,14.20
2022-10-15T05:21:19.321Z,14.10
2022-10-15T05:31:29.627Z,14.00
2022-10-15T05:41:40.569Z,13.80
2022-10-15T05:51:45.429Z,15.50
2022-10-15T06:01:55.301Z,16.50
2022-10-15T06:11:59.047Z,15.50
2022-10-15T06:22:03.326Z,16.80
2022-10-15T06:32:10.995Z,15.20
2022-10-15T06:42:19.756Z,14.10
2022-10-15T06:52:25.875Z,14.50
2022-10-15T07:02:30.265Z,15.60
2022-10-15T07:12:35.560Z,14.50
2022-10-15T07:22:39.341Z,11.50
2022-10-15T07:32:46.365Z,12.90
2022-10-15T07:42:54.852Z,12.40
2022-10-15T07:52:58.612Z,12.70
2022-10-15T08:03:02.579Z,11.20
2022-10-15T08:13:06.171Z,13.00
2022-10-15T08:23:16.827Z,11.60
2022-10-15T08:33:20.493Z,11.20
2022-10-15T08:43:42.994Z,11.00
2022-10-15T08:53:58.994Z,11.80
2022-10-15T09:04:16.977Z,11.20
2022-10-15T09:24:31.047Z,11.30
2022-10-15T09:34:51.403Z,10.40
2022-10-15T09:44:59.260Z,10.70
2022-10-15T09:55:17.499Z,9.60
2022-10-15T10:05:33.131Z,10.70
2022-10-15T10:15:42.805Z,10.30
2022-10-15T10:25:47.143Z,10.50
2022-10-15T10:35:52.157Z,9.10
2022-10-15T10:46:17.135Z,8.70
2022-10-15T10:56:30.825Z,9.10
2022-10-15T11:07:13.114Z,8.60
2022-10-15T11:17:28.951Z,7.60
2022-10-15T11:27:54.757Z,8.30
2022-10-15T11:38:23.951Z,7.40
2022-10-15T11:48:54.827Z,7.30
2022-10-15T11:59:18.384Z,7.60
2022-10-15T12:09:30.195Z,8.10
2022-10-15T12:19:59.541Z,8.10
2022-10-15T12:30:03.526Z,7.90
2022-10-15T12:40:24.193Z,6.90
2022-10-15T12:50:31.724Z,7.30
2022-10-15T13:00:39.892Z,7.80
2022-10-15T13:10:55.433Z,7.70
2022-10-15T13:31:30.436Z,6.90
2022-10-15T13:41:42.748Z,7.80
2022-10-15T13:51:51.540Z,7.50
2022-10-15T14:02:01.877Z,8.60
2022-10-15T14:12:07.866Z,9.30
2022-10-15T14:22:18.669Z,7.20
2022-10-15T14:32:30.251Z,7.00
2022-10-15T14:42:35.041Z,6.50
2022-10-15T14:52:46.157Z,6.80
2022-10-15T15:02:50.534Z,8.80
2022-10-15T15:12:57.652Z,8.10
2022-10-15T15:23:01.468Z,7.70
2022-10-15T15:33:06.803Z,14.40
2022-10-15T15:43:14.982Z,10.50
2022-10-15T15:53:18.699Z,9.20
2022-10-15T16:03:22.610Z,10.50
2022-10-15T16:13:26.771Z,10.50
2022-10-15T16:23:31.027Z,13.00
2022-10-15T16:33:34.691Z,9.90
2022-10-15T16:43:39.393Z,12.00
2022-10-15T16:53:47.007Z,16.10
2022-10-15T17:03:51.328Z,14.60
2022-10-15T17:13:58.484Z,24.10
2022-10-15T17:24:07.915Z,23.70
2022-10-15T17:34:13.573Z,24.40
2022-10-15T17:44:18.159Z,30.10
2022-10-15T17:54:22.547Z,26.80
2022-10-15T18:04:29.492Z,29.40
2022-10-15T18:14:33.963Z,38.00
2022-10-15T18:24:38.778Z,32.90
2022-10-15T18:34:44.898Z,34.30
2022-10-15T18:44:50.056Z,25.80
2022-10-15T18:54:54.370Z,26.40
2022-10-15T19:04:59.372Z,26.80
2022-10-15T19:15:04.064Z,22.60
2022-10-15T19:25:08.850Z,21.00
2022-10-15T19:35:13.332Z,23.40
2022-10-15T19:45:17.841Z,23.80
2022-10-15T19:55:23.210Z,23.10
2022-10-15T20:05:28.691Z,43.80
2022-10-15T20:15:32.787Z,25.50
2022-10-15T20:25:40.652Z,27.50
2022-10-15T20:35:44.522Z,58.80
2022-10-15T20:45:48.603Z,47.80
2022-10-15T20:55:52.378Z,44.20
2022-10-15T21:05:56.340Z,56.30
2022-10-15T21:16:01.545Z,41.50
2022-10-15T21:26:07.489Z,52.60
2022-10-15T21:36:15.933Z,43.00
2022-10-15T21:46:20.107Z,35.40
2022-10-15T21:56:24.488Z,38.00
2022-10-15T22:06:28.620Z,30.50
2022-10-15T22:16:35.549Z,23.90
2022-10-15T22:26:44.907Z,21.80
2022-10-15T22:36:48.975Z,18.10
2022-10-15T22:46:52.948Z,18.00
2022-10-15T22:56:56.414Z,26.50
2022-10-15T23:07:00.697Z,19.30
2022-10-15T23:17:04.477Z,16.40
2022-10-15T23:27:09.677Z,26.20
2022-10-15T23:37:13.978Z,15.90
2022-10-15T23:47:18.025Z,13.80
2022-10-15T23:57:21.886Z,12.50
